KBTR/BTR METAR and TAF weather

Enter ICAO airport designator
Station Type Date Time Source
KBTR METAR 2020/12/05 05:53 UTC NOAA

KBTR 050553Z AUTO 00000KT 10SM CLR 04/03 A3024 RMK AO2 SLP239 T00440033 10100 20044 401500044 51008


Station Type Date Time Source
KBTR Decoded METAR 2020/12/05 05:53 UTC NOAA

BATON ROUGE METRO RYAN FIELD, LA, United States (KBTR) 30-32N 91-09W 21M
Dec 05, 2020 - 12:53 AM EST / 2020.12.05 0553 UTC
Wind: Calm:0
Visibility: 10 mile(s):0
Sky conditions: clear
Temperature: 39.9 F (4.4 C)
Dew Point: 37.9 F (3.3 C)
Relative Humidity: 92%
Pressure (altimeter): 30.24 in. Hg (1024 hPa)
Pressure tendency: 0.02 inches (0.8 hPa) higher than three hours ago
ob: KBTR 050553Z AUTO 00000KT 10SM CLR 04/03 A3024 RMK AO2 SLP239 T00440033 10100 20044 401500044 51008
cycle: 6

Station Type Date Time Source
KBTR TAF 2020/12/05 06:28 UTC NOAA

TAF KBTR 050526Z 0506/0606 00000KT P6SM SKC

Example: see airport list